Time;durP1;ratioP1;P1;durP2;ratioP2;P2;SDS_P1;SDS_P2;PMS_P1;PMS_P2;Temp;Humidity;BMP_temperature;BMP_pressure;BME280_temperature;BME280_humidity;BME280_pressure;Samples;Min_cycle;Max_cycle;Signal;HPM_P1;HPM_P2
2021/06/29 00:01:38;;;;;;;11.28;7.08;;;;;;;20.90;53.62;100606.05;1673176;83;25822;-64
2021/06/29 00:04:05;;;;;;;13.88;7.40;;;;;;;20.87;53.76;100607.17;1682431;83;27459;-64
2021/06/29 00:06:32;;;;;;;11.80;7.15;;;;;;;20.84;53.88;100604.72;1674717;84;25814;-64
2021/06/29 00:08:58;;;;;;;12.70;7.15;;;;;;;20.83;54.00;100605.72;1676949;83;25809;-64
2021/06/29 00:11:27;;;;;;;11.30;7.60;;;;;;;20.82;54.16;100604.48;1676784;83;26597;-64
2021/06/29 00:13:54;;;;;;;11.73;6.95;;;;;;;20.80;54.27;100605.15;1677514;83;25815;-64
2021/06/29 00:16:21;;;;;;;16.32;6.95;;;;;;;20.79;54.36;100607.01;1677917;83;27430;-65
2021/06/29 00:18:46;;;;;;;15.45;7.60;;;;;;;20.77;54.51;100599.97;1724281;80;25678;-64
2021/06/29 00:21:12;;;;;;;13.00;7.17;;;;;;;20.75;54.57;100601.46;1698722;82;25739;-64
2021/06/29 00:23:40;;;;;;;18.87;7.60;;;;;;;20.72;54.65;100599.00;1674659;83;25745;-64
2021/06/29 00:26:10;;;;;;;14.15;7.60;;;;;;;20.66;54.76;100595.45;1730751;81;25815;-64
2021/06/29 00:28:38;;;;;;;15.60;6.90;;;;;;;20.60;54.90;100600.06;1723455;81;27484;-64
2021/06/29 00:31:05;;;;;;;16.23;7.22;;;;;;;20.57;55.01;100601.69;1719176;80;25780;-64
2021/06/29 00:33:33;;;;;;;17.87;7.72;;;;;;;20.49;55.14;100602.34;1733957;80;25783;-64
2021/06/29 00:35:59;;;;;;;13.72;7.03;;;;;;;20.45;55.30;100592.70;1728407;80;25860;-64
2021/06/29 00:38:27;;;;;;;12.80;7.25;;;;;;;20.41;55.41;100588.02;1727011;81;25697;-63
2021/06/29 00:40:55;;;;;;;16.20;7.90;;;;;;;20.37;55.56;100586.52;1724471;80;27379;-64
2021/06/29 00:43:21;;;;;;;15.00;7.50;;;;;;;20.34;55.72;100579.11;1744511;80;26290;-64
2021/06/29 00:45:48;;;;;;;14.93;7.20;;;;;;;20.33;55.81;100578.24;1733203;81;25781;-64
2021/06/29 00:48:18;;;;;;;16.40;7.62;;;;;;;20.32;55.93;100574.30;1734309;80;25874;-64
2021/06/29 00:50:47;;;;;;;15.15;7.45;;;;;;;20.30;56.04;100569.48;1731463;80;25790;-65
2021/06/29 00:53:16;;;;;;;14.95;8.60;;;;;;;20.29;56.15;100574.05;1729644;81;27306;-65
2021/06/29 00:55:45;;;;;;;14.53;8.13;;;;;;;20.27;56.16;100571.96;1725801;80;27397;-64
2021/06/29 00:58:13;;;;;;;16.87;7.80;;;;;;;20.25;56.23;100569.87;1721780;81;26429;-64
2021/06/29 01:00:42;;;;;;;18.57;7.60;;;;;;;20.23;56.31;100559.61;1716041;81;25896;-64
2021/06/29 01:03:09;;;;;;;12.75;7.58;;;;;;;20.22;56.34;100561.96;1716267;81;25700;-64
2021/06/29 01:05:36;;;;;;;18.40;7.85;;;;;;;20.17;56.37;100556.05;1725010;81;29586;-64
2021/06/29 01:08:06;;;;;;;15.20;8.23;;;;;;;20.12;56.40;100551.98;1712598;81;25727;-64
2021/06/29 01:10:33;;;;;;;17.07;8.75;;;;;;;20.07;56.46;100552.37;1723183;81;25801;-64
2021/06/29 01:13:00;;;;;;;14.03;7.85;;;;;;;20.04;56.57;100548.05;1732608;81;25895;-64
2021/06/29 01:15:27;;;;;;;17.40;8.03;;;;;;;20.03;56.64;100551.77;1727541;81;26159;-64
2021/06/29 01:17:56;;;;;;;17.05;8.23;;;;;;;20.01;56.69;100555.11;1733509;81;29474;-64
2021/06/29 01:20:34;;;;;;;15.72;8.20;;;;;;;19.99;56.71;100557.09;1721169;81;25445;-64
2021/06/29 01:23:01;;;;;;;20.48;7.85;;;;;;;19.95;56.79;100551.55;1716333;81;25719;-64
2021/06/29 01:25:31;;;;;;;17.55;7.55;;;;;;;19.92;56.90;100548.22;1712226;81;26474;-64
2021/06/29 01:33:20;;;;;;;11.75;7.67;;;;;;;19.81;57.24;100539.59;1707197;82;25736;-64
2021/06/29 01:35:47;;;;;;;17.10;7.75;;;;;;;19.77;57.42;100536.27;1705183;82;25772;-64
2021/06/29 01:38:21;;;;;;;15.23;7.67;;;;;;;19.76;57.52;100533.19;1705563;82;25784;-64
2021/06/29 01:40:47;;;;;;;18.35;8.73;;;;;;;19.75;57.66;100531.95;1709236;82;25897;-63
2021/06/29 01:43:16;;;;;;;13.30;8.28;;;;;;;19.70;57.72;100529.61;1706554;82;27545;-64
2021/06/29 01:45:44;;;;;;;18.85;8.50;;;;;;;19.67;57.84;100531.23;1682259;83;26498;-64
2021/06/29 01:48:22;;;;;;;15.63;8.98;;;;;;;19.65;57.95;100528.27;1669602;83;26534;-64
2021/06/29 01:50:51;;;;;;;15.60;9.40;;;;;;;19.61;58.03;100528.16;1647752;85;25776;-64
2021/06/29 01:53:18;;;;;;;18.10;8.70;;;;;;;19.58;58.08;100540.64;1717232;81;25983;-64
2021/06/29 01:55:47;;;;;;;13.60;8.95;;;;;;;19.55;58.11;100539.53;1704468;82;27428;-64
2021/06/29 01:58:20;;;;;;;14.93;8.88;;;;;;;19.51;58.12;100530.73;1704220;82;25752;-64
2021/06/29 02:00:42;;;;;;;18.75;9.83;;;;;;;19.46;58.22;100524.31;1707076;82;25826;-64
2021/06/29 02:03:08;;;;;;;16.23;9.23;;;;;;;19.45;58.27;100523.95;1704958;81;25871;-65
2021/06/29 02:05:34;;;;;;;20.40;8.75;;;;;;;19.42;58.29;100522.84;1705187;82;25843;-65
2021/06/29 02:08:02;;;;;;;14.45;9.03;;;;;;;19.42;58.30;100534.20;1707169;82;29643;-65
2021/06/29 02:10:29;;;;;;;11.70;9.33;;;;;;;19.37;58.34;100531.86;1704632;82;25711;-65
2021/06/29 02:12:57;;;;;;;11.85;8.48;;;;;;;19.33;58.40;100525.45;1705558;82;25701;-65
2021/06/29 02:15:26;;;;;;;10.45;8.00;;;;;;;19.25;58.45;100513.84;1704470;82;25784;-65
2021/06/29 02:17:52;;;;;;;14.68;8.33;;;;;;;19.27;58.54;100525.45;1697938;82;25746;-65
2021/06/29 02:20:18;;;;;;;13.90;8.35;;;;;;;19.25;58.58;100526.07;1706703;82;27611;-65
2021/06/29 02:22:46;;;;;;;18.73;9.28;;;;;;;19.23;58.68;100524.47;1697162;82;27310;-65
2021/06/29 02:25:13;;;;;;;13.40;7.97;;;;;;;19.23;58.73;100525.83;1705430;82;26842;-65
2021/06/29 02:27:40;;;;;;;14.10;8.58;;;;;;;19.21;58.77;100521.01;1708999;81;26516;-65
2021/06/29 02:30:08;;;;;;;16.27;9.18;;;;;;;19.19;58.84;100522.49;1717155;81;25805;-65
2021/06/29 02:32:36;;;;;;;14.05;9.23;;;;;;;19.20;58.89;100532.87;1710971;81;27373;-65
2021/06/29 02:35:04;;;;;;;14.50;9.10;;;;;;;19.17;59.00;100527.68;1706789;82;25799;-65
2021/06/29 02:37:31;;;;;;;15.28;9.08;;;;;;;19.16;59.02;100532.74;1706130;81;26523;-64
2021/06/29 02:39:58;;;;;;;12.63;8.33;;;;;;;19.14;59.10;100526.94;1699651;82;26633;-64
2021/06/29 02:42:24;;;;;;;11.70;8.63;;;;;;;19.15;59.16;100526.45;1706904;82;25741;-65
2021/06/29 02:44:52;;;;;;;16.05;9.10;;;;;;;19.14;59.18;100520.15;1704277;82;27380;-64
2021/06/29 02:47:22;;;;;;;12.47;9.13;;;;;;;19.12;59.20;100518.55;1704472;82;25791;-65
2021/06/29 02:49:48;;;;;;;14.45;9.75;;;;;;;19.11;59.23;100522.25;1700651;81;30448;-64
2021/06/29 02:52:16;;;;;;;16.67;9.00;;;;;;;19.09;59.30;100516.94;1718181;80;25803;-64
2021/06/29 02:54:42;;;;;;;17.23;9.60;;;;;;;19.06;59.37;100513.11;1706429;82;25700;-65
2021/06/29 02:57:08;;;;;;;13.90;8.95;;;;;;;19.08;59.44;100519.78;1679063;80;27512;-65
2021/06/29 02:59:34;;;;;;;16.17;9.48;;;;;;;19.06;59.50;100518.55;1716890;80;27162;-65
2021/06/29 03:02:00;;;;;;;17.27;9.20;;;;;;;19.06;59.54;100519.91;1707346;82;25920;-65
2021/06/29 03:04:28;;;;;;;14.43;9.78;;;;;;;19.08;59.60;100523.36;1703868;82;25789;-65
2021/06/29 03:06:54;;;;;;;23.75;10.45;;;;;;;19.07;59.67;100525.70;1705575;82;25849;-64
2021/06/29 03:09:22;;;;;;;24.10;9.60;;;;;;;19.07;59.67;100526.20;1706156;82;27558;-65
2021/06/29 03:11:48;;;;;;;17.65;10.15;;;;;;;19.06;59.69;100527.19;1708415;82;25734;-64
2021/06/29 03:14:14;;;;;;;16.87;10.08;;;;;;;19.05;59.76;100524.97;1698427;82;25981;-65
2021/06/29 03:16:42;;;;;;;18.87;10.15;;;;;;;19.06;59.81;100524.47;1705914;82;28127;-65
2021/06/29 03:19:09;;;;;;;19.75;9.95;;;;;;;19.03;59.78;100529.66;1703969;82;26489;-64
2021/06/29 03:21:35;;;;;;;18.70;9.90;;;;;;;19.02;59.84;100533.86;1705912;82;27490;-64
2021/06/29 03:24:06;;;;;;;28.40;10.95;;;;;;;19.00;59.90;100536.70;1693507;82;25421;-64
2021/06/29 03:26:32;;;;;;;21.77;10.50;;;;;;;19.00;59.97;100533.11;1722801;80;25822;-68
2021/06/29 03:28:59;;;;;;;15.43;8.18;;;;;;;19.01;60.06;100525.34;1741902;79;26327;-69
2021/06/29 03:31:24;;;;;;;21.52;8.95;;;;;;;19.01;60.05;100528.92;1727014;80;25773;-68
2021/06/29 03:33:52;;;;;;;19.62;10.15;;;;;;;19.02;60.11;100530.65;1733988;81;27591;-68
2021/06/29 03:36:17;;;;;;;16.02;8.78;;;;;;;19.03;60.21;100531.52;1727579;80;25792;-69
2021/06/29 03:38:47;;;;;;;26.00;9.38;;;;;;;19.03;60.28;100524.23;1727012;81;25809;-68
2021/06/29 03:41:14;;;;;;;16.25;9.98;;;;;;;19.05;60.32;100533.11;1731722;81;25912;-68
2021/06/29 03:43:42;;;;;;;19.10;9.48;;;;;;;19.07;60.38;100535.22;1693543;82;25291;-68
2021/06/29 03:46:10;;;;;;;13.00;9.05;;;;;;;19.09;60.42;100538.67;1732996;81;28118;-68
2021/06/29 03:48:36;;;;;;;15.70;9.43;;;;;;;19.12;60.47;100539.78;1725958;81;26088;-68
2021/06/29 03:51:05;;;;;;;15.55;9.90;;;;;;;19.17;60.50;100533.11;1718302;81;26565;-68
2021/06/29 03:53:32;;;;;;;21.33;9.43;;;;;;;19.18;60.51;100535.70;1697913;82;25742;-68
2021/06/29 03:55:58;;;;;;;20.20;10.05;;;;;;;19.18;60.52;100532.13;1720384;81;25844;-68
2021/06/29 03:58:24;;;;;;;13.15;8.85;;;;;;;19.16;60.55;100534.10;1728821;81;27487;-68
2021/06/29 04:00:50;;;;;;;16.35;9.85;;;;;;;19.19;60.65;100536.08;1716593;81;25786;-68
2021/06/29 04:03:17;;;;;;;19.92;10.55;;;;;;;19.22;60.70;100535.83;1711582;81;26425;-69
2021/06/29 04:05:43;;;;;;;17.60;11.18;;;;;;;19.26;60.68;100541.39;1704150;82;25826;-68
2021/06/29 04:08:08;;;;;;;20.00;10.28;;;;;;;19.29;60.70;100546.57;1724914;81;25793;-68
2021/06/29 04:10:35;;;;;;;19.60;10.53;;;;;;;19.32;60.67;100544.97;1733010;80;28183;-66
2021/06/29 04:13:02;;;;;;;16.32;10.68;;;;;;;19.36;60.69;100543.73;1717674;81;25788;-67
2021/06/29 04:15:29;;;;;;;16.42;10.58;;;;;;;19.39;60.69;100551.63;1730777;81;26089;-66
2021/06/29 04:17:55;;;;;;;18.95;11.68;;;;;;;19.43;60.69;100554.47;1725838;81;25909;-69
2021/06/29 04:20:23;;;;;;;22.85;11.73;;;;;;;19.46;60.67;100553.35;1714996;81;25736;-68
2021/06/29 04:22:48;;;;;;;16.07;11.28;;;;;;;19.51;60.64;100559.77;1716828;81;27464;-68
2021/06/29 04:25:15;;;;;;;21.40;11.22;;;;;;;19.55;60.65;100551.27;1725220;81;26080;-69
2021/06/29 04:27:42;;;;;;;20.60;11.08;;;;;;;19.60;60.58;100557.20;1711627;81;25735;-69
2021/06/29 04:30:09;;;;;;;24.45;12.30;;;;;;;19.63;60.57;100552.86;1724488;81;26548;-68
2021/06/29 04:32:37;;;;;;;16.42;11.20;;;;;;;19.67;60.49;100555.70;1730336;81;25846;-69
2021/06/29 04:35:09;;;;;;;21.52;12.40;;;;;;;19.73;60.46;100560.63;1716207;81;29605;-68
2021/06/29 04:37:38;;;;;;;22.58;11.40;;;;;;;19.77;60.43;100552.59;1728008;81;25808;-69
2021/06/29 04:40:07;;;;;;;20.35;11.60;;;;;;;19.83;60.35;100549.85;1714182;81;25836;-68
2021/06/29 04:42:34;;;;;;;21.15;10.70;;;;;;;19.88;60.28;100548.11;1730840;80;25893;-69
2021/06/29 04:45:04;;;;;;;19.10;12.25;;;;;;;19.94;60.20;100547.59;1740261;80;25822;-68
2021/06/29 04:47:38;;;;;;;22.98;12.45;;;;;;;20.00;60.13;100552.03;1669065;84;27503;-69
2021/06/29 04:50:01;;;;;;;20.35;11.08;;;;;;;20.05;60.03;100543.48;1657555;84;25790;-68
2021/06/29 04:52:29;;;;;;;27.55;12.37;;;;;;;20.12;59.95;100532.94;1675452;83;26203;-68
2021/06/29 04:54:55;;;;;;;26.68;14.05;;;;;;;20.17;59.86;100526.11;1663575;83;25822;-68
2021/06/29 04:57:22;;;;;;;18.82;13.03;;;;;;;20.24;59.78;100529.17;1659231;84;26255;-69
2021/06/29 04:59:48;;;;;;;50.65;19.67;;;;;;;20.31;59.65;100523.56;1663905;84;27554;-68
2021/06/29 05:02:13;;;;;;;34.53;17.05;;;;;;;20.36;59.53;100523.54;1661145;84;25813;-69
2021/06/29 05:04:43;;;;;;;37.00;16.12;;;;;;;20.41;59.42;100515.01;1683539;83;25923;-68
2021/06/29 05:07:10;;;;;;;22.20;12.43;;;;;;;20.45;59.30;100522.41;1673718;83;27876;-70
2021/06/29 05:09:37;;;;;;;16.10;11.33;;;;;;;20.50;59.23;100521.02;1674003;83;25756;-67
2021/06/29 05:12:05;;;;;;;28.47;14.18;;;;;;;20.57;59.14;100511.32;1673778;83;27361;-68
2021/06/29 05:14:32;;;;;;;22.98;11.30;;;;;;;20.63;59.04;100509.92;1675968;84;26404;-70
2021/06/29 05:16:58;;;;;;;33.35;12.20;;;;;;;20.70;58.92;100509.75;1682617;84;25777;-69
2021/06/29 05:19:26;;;;;;;24.12;12.00;;;;;;;20.77;58.82;100507.34;1678831;83;27998;-69
2021/06/29 05:21:54;;;;;;;21.48;10.88;;;;;;;20.82;58.70;100495.52;1676255;83;25840;-67
2021/06/29 05:24:22;;;;;;;24.15;11.60;;;;;;;20.89;58.61;100501.65;1677099;84;27522;-69
2021/06/29 05:26:49;;;;;;;21.90;11.73;;;;;;;20.98;58.46;100494.52;1676149;83;25694;-69
2021/06/29 05:29:15;;;;;;;15.20;10.15;;;;;;;21.05;58.36;100489.74;1683332;83;25801;-68
2021/06/29 05:31:42;;;;;;;20.57;10.70;;;;;;;21.15;58.23;100485.69;1693641;83;25767;-68
2021/06/29 05:34:08;;;;;;;22.45;11.10;;;;;;;21.25;58.10;100481.67;1720134;80;26855;-69
2021/06/29 05:36:34;;;;;;;20.50;10.13;;;;;;;21.34;57.94;100479.47;1694194;82;27540;-68
2021/06/29 05:39:01;;;;;;;22.10;10.30;;;;;;;21.42;57.74;100476.05;1726957;81;25726;-68
2021/06/29 05:41:27;;;;;;;17.25;10.10;;;;;;;21.49;57.56;100479.44;1716931;81;25921;-68
2021/06/29 05:43:54;;;;;;;21.80;8.95;;;;;;;21.57;57.38;100478.73;1717945;81;25813;-69
2021/06/29 05:46:20;;;;;;;21.52;10.85;;;;;;;21.66;57.22;100486.94;1720064;81;25723;-67
2021/06/29 05:48:48;;;;;;;18.05;9.38;;;;;;;21.75;57.08;100496.14;1724692;81;27564;-67
2021/06/29 05:51:14;;;;;;;19.52;9.80;;;;;;;21.86;56.91;100496.00;1716752;81;25767;-67
2021/06/29 05:53:40;;;;;;;21.42;9.68;;;;;;;21.93;56.78;100493.56;1721957;81;25692;-67
2021/06/29 05:56:12;;;;;;;23.47;9.53;;;;;;;22.02;56.69;100496.84;1731117;81;26664;-67
2021/06/29 05:58:40;;;;;;;20.97;10.00;;;;;;;22.13;56.54;100485.77;1728917;81;25754;-68
2021/06/29 06:01:09;;;;;;;12.82;8.28;;;;;;;22.25;56.33;100488.70;1723210;81;45617;-69
2021/06/29 06:03:37;;;;;;;16.15;7.87;;;;;;;22.38;56.14;100495.23;1722775;80;25712;-68
2021/06/29 06:06:04;;;;;;;20.43;9.15;;;;;;;22.49;55.87;100495.58;1718111;81;26637;-67
2021/06/29 06:08:30;;;;;;;14.87;7.95;;;;;;;22.59;55.69;100495.91;1721199;81;25821;-69
2021/06/29 06:10:59;;;;;;;22.20;8.18;;;;;;;22.67;55.29;100496.04;1734415;80;26341;-68
2021/06/29 06:13:26;;;;;;;21.30;8.25;;;;;;;22.73;55.11;100490.99;1722461;81;27367;-68
2021/06/29 06:15:54;;;;;;;17.12;8.30;;;;;;;22.75;54.81;100493.94;1724382;81;25836;-69
2021/06/29 06:18:20;;;;;;;13.98;8.35;;;;;;;22.86;54.64;100501.98;1720321;81;25727;-68
2021/06/29 06:20:46;;;;;;;16.23;7.67;;;;;;;22.94;54.40;100502.61;1720078;81;25825;-68
2021/06/29 06:23:12;;;;;;;16.90;7.25;;;;;;;22.99;54.35;100505.25;1727926;81;25293;-67
2021/06/29 06:25:38;;;;;;;17.60;7.97;;;;;;;23.10;54.20;100513.77;1727633;80;27861;-69
2021/06/29 06:28:06;;;;;;;22.73;8.35;;;;;;;23.18;54.05;100506.19;1723516;79;26273;-69
2021/06/29 06:30:35;;;;;;;17.73;8.18;;;;;;;23.27;53.95;100502.54;1679911;82;26351;-71
2021/06/29 06:33:02;;;;;;;13.93;7.95;;;;;;;23.33;53.85;100512.88;1664338;84;26526;-71
2021/06/29 06:35:34;;;;;;;15.90;7.58;;;;;;;23.40;53.72;100511.25;1657118;83;25806;-69
2021/06/29 06:38:00;;;;;;;16.15;7.47;;;;;;;23.49;53.58;100514.41;1655688;83;27450;-70
2021/06/29 06:40:33;;;;;;;11.43;7.05;;;;;;;23.68;53.39;100512.61;1667740;83;25881;-69
2021/06/29 06:42:59;;;;;;;18.02;8.35;;;;;;;23.68;53.39;100512.61;1661254;83;25764;-70
2021/06/29 06:45:27;;;;;;;29.80;8.78;;;;;;;23.75;53.31;100503.62;1664286;84;26595;-70
2021/06/29 06:47:55;;;;;;;13.93;7.22;;;;;;;23.70;53.23;100479.97;1654011;83;25873;-69
2021/06/29 06:50:22;;;;;;;20.75;7.80;;;;;;;23.92;53.01;100500.55;1677088;83;27471;-70
2021/06/29 06:52:50;;;;;;;14.13;8.35;;;;;;;23.99;52.83;100498.91;1669361;83;25814;-69
2021/06/29 06:55:24;;;;;;;15.83;7.67;;;;;;;24.07;52.59;100498.13;1668651;82;25848;-70
2021/06/29 06:57:48;;;;;;;14.65;8.55;;;;;;;24.01;52.57;100474.97;1673842;83;25981;-69
2021/06/29 07:00:18;;;;;;;13.03;7.72;;;;;;;24.20;52.60;100503.56;1667613;84;26018;-69
2021/06/29 07:02:44;;;;;;;11.73;7.75;;;;;;;24.25;52.35;100497.61;1668777;84;27567;-69
2021/06/29 07:05:11;;;;;;;14.13;8.25;;;;;;;24.31;52.30;100503.00;1665674;83;26840;-69
2021/06/29 07:07:40;;;;;;;33.78;8.55;;;;;;;24.25;52.23;100477.92;1663296;84;25866;-69
2021/06/29 07:10:08;;;;;;;12.47;7.70;;;;;;;24.48;52.13;100504.84;1667914;83;25856;-69
2021/06/29 07:12:35;;;;;;;10.48;7.20;;;;;;;24.58;51.94;100501.50;1660334;83;25745;-69
2021/06/29 07:15:02;;;;;;;9.38;7.42;;;;;;;24.68;51.71;100503.62;1668691;83;27948;-70
2021/06/29 07:17:28;;;;;;;11.08;7.50;;;;;;;24.76;51.52;100500.09;1676924;83;26521;-69
2021/06/29 07:19:54;;;;;;;11.60;7.00;;;;;;;24.82;51.13;100495.33;1675773;83;25795;-69
2021/06/29 07:22:22;;;;;;;14.80;7.85;;;;;;;24.92;50.84;100496.08;1637946;85;25847;-70
2021/06/29 07:24:50;;;;;;;14.50;7.45;;;;;;;25.00;50.64;100492.04;1647026;84;25836;-70
2021/06/29 07:27:18;;;;;;;7.83;6.90;;;;;;;25.08;50.48;100486.59;1602287;87;27476;-70
2021/06/29 07:29:44;;;;;;;14.38;7.28;;;;;;;25.18;50.28;100482.36;1680369;82;26614;-71
2021/06/29 07:32:11;;;;;;;17.60;6.92;;;;;;;25.26;50.10;100474.67;1705638;82;25717;-71
2021/06/29 07:34:39;;;;;;;14.68;5.75;;;;;;;25.33;49.97;100476.59;1705936;82;25718;-68
2021/06/29 07:37:05;;;;;;;20.72;6.97;;;;;;;25.41;49.72;100478.00;1705455;82;25772;-69
2021/06/29 07:39:33;;;;;;;16.00;6.60;;;;;;;25.50;49.47;100475.62;1702857;82;27458;-68
2021/06/29 07:42:00;;;;;;;9.10;5.92;;;;;;;25.55;49.31;100465.00;1703614;82;25780;-68
2021/06/29 07:44:28;;;;;;;14.20;6.12;;;;;;;25.65;49.14;100469.52;1700121;82;26473;-69
2021/06/29 07:46:57;;;;;;;10.68;5.53;;;;;;;25.71;48.97;100467.48;1705782;82;25889;-70
2021/06/29 07:49:22;;;;;;;12.05;6.03;;;;;;;25.83;48.72;100468.88;1706895;82;25844;-69
2021/06/29 07:51:48;;;;;;;14.38;6.45;;;;;;;25.92;48.40;100470.60;1680067;83;27574;-70
2021/06/29 07:54:13;;;;;;;10.00;5.28;;;;;;;25.98;48.17;100467.17;1667058;84;26475;-70
2021/06/29 07:56:41;;;;;;;13.45;5.75;;;;;;;26.05;47.98;100463.20;1664067;84;25796;-69
2021/06/29 07:59:11;;;;;;;10.10;7.12;;;;;;;26.15;47.79;100468.02;1662315;84;25808;-72
2021/06/29 08:01:38;;;;;;;6.90;5.35;;;;;;;26.25;47.42;100460.45;1664943;84;25839;-71
2021/06/29 08:04:04;;;;;;;8.45;4.75;;;;;;;26.34;47.05;100458.59;1656005;84;27445;-70
2021/06/29 08:06:30;;;;;;;7.97;5.15;;;;;;;26.42;46.80;100460.83;1667485;84;25964;-70
2021/06/29 08:09:01;;;;;;;9.73;5.17;;;;;;;26.50;46.46;100464.08;1663896;84;26186;-70
2021/06/29 08:11:27;;;;;;;8.20;5.33;;;;;;;26.57;46.22;100461.50;1666411;84;26554;-71
2021/06/29 08:13:54;;;;;;;13.30;5.03;;;;;;;26.67;46.04;100466.29;1666364;84;25798;-70
2021/06/29 08:16:19;;;;;;;6.10;4.35;;;;;;;26.77;45.79;100467.81;1673610;84;28982;-69
2021/06/29 08:18:47;;;;;;;6.72;4.45;;;;;;;26.82;45.54;100467.29;1667280;84;25777;-69
2021/06/29 08:21:13;;;;;;;7.78;4.28;;;;;;;26.88;45.34;100467.10;1666363;84;25805;-69
2021/06/29 08:23:39;;;;;;;9.58;4.55;;;;;;;26.95;45.08;100462.61;1668571;84;25819;-69
2021/06/29 08:26:06;;;;;;;13.18;4.30;;;;;;;27.01;44.69;100467.44;1666970;84;25702;-69
2021/06/29 08:28:36;;;;;;;8.10;3.92;;;;;;;27.08;44.40;100464.31;1666450;84;27543;-69
2021/06/29 08:31:05;;;;;;;5.22;3.98;;;;;;;27.16;44.15;100462.91;1677854;83;25771;-69
2021/06/29 08:33:31;;;;;;;6.72;3.65;;;;;;;27.19;43.87;100460.32;1664103;84;26087;-69
2021/06/29 08:35:58;;;;;;;10.32;4.22;;;;;;;27.25;43.56;100460.98;1665769;84;25830;-69
2021/06/29 08:38:25;;;;;;;10.98;5.20;;;;;;;27.25;43.28;100461.84;1663991;84;25774;-70
2021/06/29 08:40:52;;;;;;;7.35;4.22;;;;;;;27.30;42.97;100459.41;1668584;84;27533;-70
2021/06/29 08:43:18;;;;;;;8.48;3.90;;;;;;;27.38;42.85;100461.27;1668158;84;26689;-70
2021/06/29 08:45:45;;;;;;;5.47;3.72;;;;;;;27.45;42.74;100463.64;1672677;83;25758;-70
2021/06/29 08:48:11;;;;;;;19.23;4.05;;;;;;;27.54;42.35;100456.19;1666035;84;26479;-70
2021/06/29 08:50:39;;;;;;;7.35;3.60;;;;;;;27.55;42.07;100456.02;1672402;83;25777;-70
2021/06/29 08:53:10;;;;;;;7.17;3.10;;;;;;;27.55;41.56;100454.64;1665420;83;27476;-69
2021/06/29 08:55:42;;;;;;;7.75;3.83;;;;;;;27.56;41.44;100454.12;1656494;84;26430;-71
2021/06/29 08:58:08;;;;;;;6.65;3.75;;;;;;;27.63;41.35;100460.65;1667550;84;25835;-69
2021/06/29 09:00:35;;;;;;;6.03;4.08;;;;;;;27.74;41.19;100463.84;1662646;84;25818;-69
2021/06/29 09:03:01;;;;;;;7.47;3.40;;;;;;;27.84;41.02;100451.22;1666680;84;25728;-70
2021/06/29 09:05:30;;;;;;;8.75;3.20;;;;;;;27.91;40.83;100454.09;1667184;84;27532;-70
2021/06/29 09:08:10;;;;;;;15.85;3.52;;;;;;;27.96;40.40;100459.39;1667486;84;25903;-69
2021/06/29 09:10:38;;;;;;;14.25;3.17;;;;;;;28.00;40.10;100450.23;1686489;82;25798;-69
2021/06/29 09:13:08;;;;;;;9.93;3.60;;;;;;;28.05;39.82;100444.52;1679143;83;25801;-69
2021/06/29 09:15:42;;;;;;;6.87;3.83;;;;;;;28.08;39.57;100443.29;1676779;83;25818;-70
2021/06/29 09:18:28;;;;;;;3.67;3.25;;;;;;;28.11;39.44;100439.64;1673598;82;27438;-69
2021/06/29 09:21:11;;;;;;;10.60;3.52;;;;;;;28.16;39.25;100435.47;1662539;82;27274;-69
2021/06/29 09:23:41;;;;;;;7.03;2.83;;;;;;;28.22;39.12;100433.35;1667219;83;25896;-69
2021/06/29 09:26:14;;;;;;;26.42;4.40;;;;;;;28.32;39.05;100431.23;1670315;83;34836;-69
2021/06/29 09:28:48;;;;;;;11.80;3.42;;;;;;;28.45;38.92;100428.69;1666148;84;25786;-69
2021/06/29 09:31:18;;;;;;;9.65;3.20;;;;;;;28.58;38.73;100429.42;1668843;84;27430;-69
2021/06/29 09:33:53;;;;;;;39.67;5.03;;;;;;;28.66;38.28;100422.41;1664947;84;25856;-69
2021/06/29 09:36:25;;;;;;;8.85;3.40;;;;;;;28.71;38.32;100426.31;1666541;84;25709;-69
2021/06/29 09:38:54;;;;;;;58.63;9.40;;;;;;;28.80;37.85;100413.80;1667333;84;27874;-69
2021/06/29 09:41:34;;;;;;;37.80;5.50;;;;;;;28.85;38.02;100422.40;1665895;84;26732;-70
2021/06/29 09:44:09;;;;;;;24.43;5.00;;;;;;;29.02;37.99;100419.78;1651623;84;27332;-69
2021/06/29 09:46:41;;;;;;;12.88;3.92;;;;;;;29.18;37.88;100411.29;1662311;84;25706;-69
2021/06/29 09:49:14;;;;;;;38.17;6.33;;;;;;;29.28;37.46;100404.94;1663476;84;25947;-70
2021/06/29 09:51:49;;;;;;;37.85;5.47;;;;;;;29.38;37.41;100399.97;1662511;84;25843;-70
2021/06/29 09:54:15;;;;;;;4.95;3.55;;;;;;;29.50;37.43;100409.16;1663258;84;25848;-72
2021/06/29 09:56:46;;;;;;;8.70;4.35;;;;;;;29.58;37.07;100404.89;1666840;84;27495;-69
2021/06/29 09:59:20;;;;;;;;;;;;;;;29.57;37.05;100403.19;1668047;84;25871;-70
2021/06/29 10:01:49;;;;;;;16.17;5.97;;;;;;;29.61;36.93;100401.22;1669739;84;25821;-68
2021/06/29 10:04:15;;;;;;;17.60;3.90;;;;;;;29.68;37.05;100393.00;1640004;84;25754;-67
2021/06/29 10:06:47;;;;;;;11.25;5.10;;;;;;;29.81;37.08;100382.61;1664683;84;26506;-68
2021/06/29 10:09:14;;;;;;;;;;;;;;;29.89;36.90;100388.86;1667241;84;29568;-68
2021/06/29 10:11:45;;;;;;;15.88;4.83;;;;;;;29.99;36.75;100388.00;1666062;84;25767;-68
2021/06/29 10:14:14;;;;;;;15.70;4.47;;;;;;;30.09;36.68;100378.55;1664856;84;25811;-69
2021/06/29 10:16:49;;;;;;;10.93;4.60;;;;;;;30.09;36.50;100378.02;1659761;84;26602;-69
2021/06/29 10:22:00;;;;;;;11.60;4.40;;;;;;;30.06;36.23;100377.56;1667750;84;27478;-68
2021/06/29 10:24:31;;;;;;;7.95;3.98;;;;;;;30.17;36.24;100378.39;1663342;84;25899;-69
2021/06/29 10:27:00;;;;;;;9.68;4.35;;;;;;;30.27;35.86;100374.23;1671031;83;25838;-69
2021/06/29 10:29:29;;;;;;;26.57;5.10;;;;;;;30.41;35.93;100371.03;1665442;84;26557;-67
2021/06/29 10:32:06;;;;;;;20.62;3.90;;;;;;;30.56;35.75;100375.07;1664388;84;25766;-67
2021/06/29 10:34:34;;;;;;;23.77;4.40;;;;;;;30.67;35.70;100364.32;1662550;84;27410;-68
2021/06/29 10:37:00;;;;;;;17.27;3.62;;;;;;;30.77;35.21;100363.09;1672185;83;25750;-67
2021/06/29 10:39:30;;;;;;;8.98;3.60;;;;;;;30.82;35.31;100362.81;1668254;83;25671;-68
2021/06/29 10:42:13;;;;;;;23.70;4.00;;;;;;;30.98;35.19;100366.62;1715439;80;25953;-68
2021/06/29 10:44:51;;;;;;;14.05;4.37;;;;;;;31.13;34.77;100361.46;1702028;82;25822;-67
2021/06/29 10:47:26;;;;;;;13.18;3.87;;;;;;;31.11;34.66;100360.81;1702448;82;27499;-67
2021/06/29 10:49:56;;;;;;;7.35;3.15;;;;;;;31.24;34.53;100364.48;1701878;82;26301;-67
2021/06/29 10:52:33;;;;;;;12.45;7.42;;;;;;;31.30;34.30;100355.87;1695670;82;25772;-68
2021/06/29 10:55:28;;;;;;;9.60;3.75;;;;;;;31.34;34.06;100359.94;1706868;82;25753;-68
2021/06/29 10:57:58;;;;;;;10.05;3.80;;;;;;;31.41;34.01;100360.81;1700816;82;25858;-69
2021/06/29 11:00:31;;;;;;;15.23;3.63;;;;;;;31.56;33.91;100360.10;1714680;80;28155;-68
2021/06/29 11:03:10;;;;;;;13.25;3.98;;;;;;;31.68;33.77;100364.50;1707091;82;25931;-67
2021/06/29 11:05:42;;;;;;;9.05;3.83;;;;;;;31.89;33.80;100351.02;1696719;82;25971;-67
2021/06/29 11:08:27;;;;;;;10.93;3.30;;;;;;;32.07;33.47;100356.77;1698154;82;26490;-68
2021/06/29 11:10:54;;;;;;;10.13;3.15;;;;;;;32.11;33.20;100362.22;1704279;82;25857;-67
2021/06/29 11:13:43;;;;;;;4.53;3.27;;;;;;;32.08;32.89;100359.02;1699816;82;27571;-67
2021/06/29 11:16:09;;;;;;;9.93;4.28;;;;;;;32.05;32.64;100353.89;1708268;82;25793;-68
2021/06/29 11:18:46;;;;;;;9.13;4.15;;;;;;;32.02;32.49;100355.71;1706437;82;25793;-67
2021/06/29 11:21:27;;;;;;;8.78;3.70;;;;;;;32.02;32.49;100351.02;1704990;82;25730;-68
2021/06/29 11:23:55;;;;;;;14.13;4.12;;;;;;;32.04;32.26;100346.64;1707095;82;25988;-67
2021/06/29 11:26:27;;;;;;;25.12;4.97;;;;;;;32.05;32.28;100347.81;1697868;82;28228;-67
2021/06/29 11:29:05;;;;;;;17.98;4.20;;;;;;;32.14;32.01;100349.84;1706357;82;35000;-67
2021/06/29 11:31:33;;;;;;;8.65;3.42;;;;;;;32.06;31.93;100346.75;1697488;81;25811;-68